Time;durP1;ratioP1;P1;durP2;ratioP2;P2;SDS_P1;SDS_P2;PMS_P1;PMS_P2;Temp;Humidity;BMP_temperature;BMP_pressure;BME280_temperature;BME280_humidity;BME280_pressure;Samples;Min_cycle;Max_cycle;Signal;HPM_P1;HPM_P2
2023/05/04 00:00:47;;;;;;;12.57;6.63;;;;;;;9.46;68.40;102070.81;5020943;28;20473;-83
2023/05/04 00:03:12;;;;;;;10.77;6.38;;;;;;;9.44;68.28;102072.88;5004339;28;20029;-83
2023/05/04 00:05:37;;;;;;;13.70;6.63;;;;;;;9.43;68.41;102071.19;5004015;28;20033;-83
2023/05/04 00:08:03;;;;;;;11.50;6.40;;;;;;;9.41;67.87;102073.25;5004276;28;20112;-83
2023/05/04 00:10:28;;;;;;;13.93;6.60;;;;;;;9.37;68.25;102070.03;5020228;28;20043;-82
2023/05/04 00:12:54;;;;;;;9.38;6.10;;;;;;;9.34;67.68;102062.25;5036782;28;20079;-83
2023/05/04 00:15:19;;;;;;;10.10;6.60;;;;;;;9.33;69.34;102054.31;5004363;28;20025;-83
2023/05/04 00:17:45;;;;;;;13.27;6.50;;;;;;;9.31;68.68;102059.91;5021104;28;20064;-83
2023/05/04 00:20:12;;;;;;;12.27;6.80;;;;;;;9.29;69.16;102051.97;5020727;28;20025;-83
2023/05/04 00:22:37;;;;;;;11.77;6.40;;;;;;;9.26;68.72;102044.19;5020143;28;20079;-83
2023/05/04 00:25:04;;;;;;;10.37;5.70;;;;;;;9.25;69.24;102045.19;5020699;28;20052;-83
2023/05/04 00:27:30;;;;;;;11.00;6.22;;;;;;;9.23;68.80;102039.13;5020435;28;20087;-83
2023/05/04 00:29:55;;;;;;;10.27;6.13;;;;;;;9.23;68.92;102041.00;5020234;28;20465;-83
2023/05/04 00:32:21;;;;;;;9.77;5.83;;;;;;;9.20;68.84;102027.81;5020225;28;20132;-83
2023/05/04 00:34:47;;;;;;;9.03;6.00;;;;;;;9.17;69.64;102033.56;5019360;28;20127;-83
2023/05/04 00:37:12;;;;;;;10.27;5.95;;;;;;;9.17;68.82;102031.72;5036337;28;20496;-83
2023/05/04 00:39:38;;;;;;;10.07;5.50;;;;;;;9.09;69.06;102024.50;5003699;28;20060;-83
2023/05/04 00:42:03;;;;;;;9.47;6.10;;;;;;;9.07;69.62;102028.38;5036590;28;20469;-82
2023/05/04 00:44:29;;;;;;;19.20;5.75;;;;;;;9.03;69.46;102027.88;5054291;28;20033;-83
2023/05/04 00:46:55;;;;;;;13.17;5.77;;;;;;;8.99;69.76;102037.41;5054320;28;20040;-82
2023/05/04 00:49:21;;;;;;;12.25;5.88;;;;;;;8.95;69.07;102038.75;5036165;28;20055;-82
2023/05/04 00:51:48;;;;;;;11.90;5.82;;;;;;;8.94;70.15;102031.66;5036384;28;20036;-83
2023/05/04 00:54:16;;;;;;;14.27;5.93;;;;;;;8.94;70.17;102026.25;5019557;28;20044;-83
2023/05/04 00:56:42;;;;;;;10.20;5.47;;;;;;;8.91;69.80;102023.88;5036124;28;20048;-83
2023/05/04 00:59:08;;;;;;;10.02;5.88;;;;;;;8.85;70.15;102025.41;5036116;28;20481;-83
2023/05/04 01:01:34;;;;;;;10.13;5.13;;;;;;;8.82;69.59;102024.94;5036029;28;20037;-83
2023/05/04 01:03:59;;;;;;;10.48;5.53;;;;;;;8.76;70.03;102021.91;5036029;28;20036;-83
2023/05/04 01:06:48;;;;;;;8.50;5.70;;;;;;;8.76;69.07;102024.59;5019618;28;20171;-83
2023/05/04 01:09:25;;;;;;;9.60;4.97;;;;;;;8.73;70.52;102019.56;5036064;28;20377;-82
2023/05/04 01:12:26;;;;;;;10.70;5.80;;;;;;;8.69;70.07;102018.19;5053881;28;20028;-83
2023/05/04 01:14:55;;;;;;;9.75;5.80;;;;;;;8.66;71.23;102012.31;5035912;28;20489;-84
2023/05/04 01:17:20;;;;;;;9.07;6.63;;;;;;;8.64;71.39;102007.06;5036100;28;20115;-83
2023/05/04 01:19:46;;;;;;;11.70;6.32;;;;;;;8.64;71.72;102007.06;5020326;28;20115;-83
2023/05/04 01:22:12;;;;;;;9.93;5.27;;;;;;;8.59;72.02;102002.19;5019319;28;20033;-83
2023/05/04 01:24:37;;;;;;;8.43;5.20;;;;;;;8.57;71.53;101993.38;5019717;28;20082;-83
2023/05/04 01:27:14;;;;;;;7.73;5.47;;;;;;;8.50;72.15;101997.81;5035653;28;20056;-83
2023/05/04 01:30:21;;;;;;;10.93;5.60;;;;;;;8.49;70.78;102006.09;5035766;28;20032;-83
2023/05/04 01:32:48;;;;;;;9.13;5.68;;;;;;;8.44;72.07;102003.91;5027779;28;20129;-83
2023/05/04 01:35:15;;;;;;;10.60;5.47;;;;;;;8.42;72.84;102003.22;5053519;28;20059;-83
2023/05/04 01:37:41;;;;;;;9.80;5.20;;;;;;;8.41;73.26;101993.41;5054020;28;20025;-83
2023/05/04 01:40:07;;;;;;;6.88;5.25;;;;;;;8.39;73.00;101998.16;5053508;28;20025;-83
2023/05/04 01:42:32;;;;;;;14.57;5.50;;;;;;;8.39;73.17;101996.28;5035336;28;20067;-83
2023/05/04 01:44:58;;;;;;;11.70;5.53;;;;;;;8.40;72.52;101987.16;5037717;28;20033;-83
2023/05/04 01:47:23;;;;;;;8.97;5.40;;;;;;;8.38;72.42;101993.75;5057862;28;20107;-83
2023/05/04 01:49:49;;;;;;;8.77;5.20;;;;;;;8.34;73.16;102000.50;5039663;28;20631;-83
2023/05/04 01:52:14;;;;;;;12.20;6.00;;;;;;;8.31;73.28;101995.47;5038939;28;20042;-83
2023/05/04 01:54:40;;;;;;;13.87;5.43;;;;;;;8.30;72.76;101999.16;5023714;28;20488;-83
2023/05/04 01:57:05;;;;;;;8.00;5.55;;;;;;;8.26;73.48;101995.97;5039381;28;20483;-83
2023/05/04 01:59:31;;;;;;;9.20;5.57;;;;;;;8.24;74.04;101995.31;5006439;28;20485;-83
2023/05/04 02:01:56;;;;;;;13.27;5.93;;;;;;;8.21;74.08;102001.91;5022674;28;20069;-83
2023/05/04 02:04:22;;;;;;;8.97;5.80;;;;;;;8.20;73.82;101997.50;5057302;28;20115;-83
2023/05/04 02:06:47;;;;;;;13.47;5.40;;;;;;;8.17;74.36;101992.44;5039223;28;20759;-83
2023/05/04 02:09:13;;;;;;;9.97;5.93;;;;;;;8.16;74.93;102001.56;5039796;28;20037;-83
2023/05/04 02:11:38;;;;;;;13.20;6.20;;;;;;;8.12;75.34;101992.13;5040027;28;20127;-82
2023/05/04 02:14:04;;;;;;;8.83;5.20;;;;;;;8.11;75.10;102000.41;5056913;28;20028;-83
2023/05/04 02:16:30;;;;;;;10.30;5.80;;;;;;;8.12;75.37;102002.06;5039163;28;20469;-83
2023/05/04 02:18:55;;;;;;;10.55;5.80;;;;;;;8.11;75.19;102001.25;5022944;28;20117;-83
2023/05/04 02:21:22;;;;;;;12.83;5.87;;;;;;;8.10;75.15;101993.31;5022754;28;20392;-83
2023/05/04 02:23:47;;;;;;;8.38;5.80;;;;;;;8.10;75.29;101993.31;5039157;28;20040;-83
2023/05/04 02:26:13;;;;;;;12.03;5.80;;;;;;;8.04;75.84;101986.72;5039110;28;20106;-83
2023/05/04 02:28:38;;;;;;;15.65;6.18;;;;;;;8.04;76.04;101986.72;5039203;28;20040;-83
2023/05/04 02:31:03;;;;;;;13.70;6.20;;;;;;;7.99;76.17;101976.44;5038747;28;20083;-83
2023/05/04 02:33:29;;;;;;;12.33;5.53;;;;;;;7.96;76.43;101978.59;5022793;28;20037;-83
2023/05/04 02:35:55;;;;;;;10.07;6.22;;;;;;;7.89;76.60;101983.88;5038930;28;20456;-83
2023/05/04 02:38:20;;;;;;;11.87;6.43;;;;;;;7.84;77.04;101984.38;5056594;28;20028;-82
2023/05/04 02:40:46;;;;;;;13.40;5.57;;;;;;;7.77;77.45;101977.97;5038542;28;20100;-83
2023/05/04 02:43:11;;;;;;;10.37;6.27;;;;;;;7.76;77.23;101981.66;5022472;28;20044;-83
2023/05/04 02:45:44;;;;;;;9.15;5.88;;;;;;;7.74;77.66;101981.00;5038706;28;20385;-83
2023/05/04 02:48:09;;;;;;;15.93;6.23;;;;;;;7.71;78.30;101989.44;5023787;28;20116;-82
2023/05/04 02:50:35;;;;;;;10.32;5.90;;;;;;;7.68;78.91;101976.28;5022110;28;20041;-83
2023/05/04 02:53:02;;;;;;;10.00;6.00;;;;;;;7.66;78.49;101975.59;5039235;28;20033;-83
2023/05/04 02:55:28;;;;;;;10.80;6.10;;;;;;;7.63;78.96;101982.19;5038011;28;20032;-83
2023/05/04 02:57:53;;;;;;;12.90;6.30;;;;;;;7.60;79.17;101981.66;5020767;28;20033;-83
2023/05/04 03:00:19;;;;;;;11.87;6.73;;;;;;;7.57;79.33;101977.44;5022403;28;20127;-83
2023/05/04 03:02:44;;;;;;;9.32;6.20;;;;;;;7.54;79.62;101977.78;5022166;28;20040;-83
2023/05/04 03:05:10;;;;;;;11.82;6.40;;;;;;;7.50;79.36;101977.28;5038418;28;20035;-83
2023/05/04 03:07:35;;;;;;;11.90;6.33;;;;;;;7.46;79.16;101981.31;5038083;28;20037;-82
2023/05/04 03:10:01;;;;;;;12.83;5.90;;;;;;;7.43;79.58;101980.81;5039020;28;20041;-83
2023/05/04 03:12:26;;;;;;;14.43;6.60;;;;;;;7.38;80.18;101979.47;5056319;28;20091;-83
2023/05/04 03:14:51;;;;;;;17.40;6.82;;;;;;;7.36;80.03;101976.06;5038269;28;20120;-83
2023/05/04 03:17:17;;;;;;;10.53;5.73;;;;;;;7.34;80.36;101972.69;5056404;28;20481;-83
2023/05/04 03:19:42;;;;;;;13.40;6.47;;;;;;;7.31;80.70;101975.72;5038821;28;20449;-83
2023/05/04 03:22:08;;;;;;;9.13;6.10;;;;;;;7.33;81.00;101972.84;5021941;28;20040;-83
2023/05/04 03:24:33;;;;;;;8.50;5.70;;;;;;;7.31;80.40;101974.91;5037882;28;20065;-83
2023/05/04 03:26:59;;;;;;;12.32;6.40;;;;;;;7.24;81.53;101961.19;5055303;28;20053;-83
2023/05/04 03:29:25;;;;;;;19.13;6.80;;;;;;;7.24;81.57;101960.38;5021398;28;20033;-83
2023/05/04 03:31:50;;;;;;;12.05;6.50;;;;;;;7.21;81.17;101953.44;5021065;28;20029;-83
2023/05/04 03:34:20;;;;;;;10.73;6.50;;;;;;;7.22;82.09;101952.44;5037791;28;20028;-83
2023/05/04 03:36:46;;;;;;;12.75;6.38;;;;;;;7.20;81.14;101951.75;5037518;28;20556;-83
2023/05/04 03:39:11;;;;;;;12.88;6.70;;;;;;;7.18;81.74;101957.31;5037720;28;20033;-83
2023/05/04 03:41:37;;;;;;;12.63;6.80;;;;;;;7.16;81.76;101948.53;5005485;28;20090;-83
2023/05/04 03:44:02;;;;;;;10.10;6.57;;;;;;;7.17;81.88;101943.97;5021183;28;20047;-83
2023/05/04 03:46:31;;;;;;;10.43;6.23;;;;;;;7.16;81.83;101951.25;5021016;28;20083;-83
2023/05/04 03:48:56;;;;;;;11.20;6.90;;;;;;;7.16;81.99;101944.97;5037738;28;20033;-83
2023/05/04 03:51:21;;;;;;;11.33;6.60;;;;;;;7.16;82.27;101947.69;5037997;28;20071;-86
2023/05/04 03:53:47;;;;;;;10.30;6.33;;;;;;;7.15;81.22;101940.63;5037057;28;20025;-83
2023/05/04 03:56:12;;;;;;;10.67;6.23;;;;;;;7.15;82.25;101943.31;5037493;28;20040;-83
2023/05/04 03:58:38;;;;;;;10.90;6.67;;;;;;;7.13;82.19;101946.19;5037184;28;20652;-83
2023/05/04 04:01:03;;;;;;;12.07;6.37;;;;;;;7.13;82.42;101935.38;5020967;28;20072;-83
2023/05/04 04:03:29;;;;;;;10.13;6.50;;;;;;;7.11;83.12;101941.94;5053837;28;20037;-83
2023/05/04 04:05:55;;;;;;;10.05;6.07;;;;;;;7.13;82.72;101938.09;5020786;28;20416;-83
2023/05/04 04:08:20;;;;;;;13.65;6.25;;;;;;;7.13;82.80;101942.63;5037059;28;20040;-83
2023/05/04 04:10:46;;;;;;;9.83;6.37;;;;;;;7.12;82.73;101941.78;5021095;28;20074;-83
2023/05/04 04:13:14;;;;;;;11.67;6.53;;;;;;;7.10;83.72;101941.13;5020912;28;20044;-83
2023/05/04 04:15:39;;;;;;;9.68;6.28;;;;;;;7.10;82.91;101941.13;5036968;28;20028;-83
2023/05/04 04:18:05;;;;;;;13.90;6.57;;;;;;;7.09;83.14;101941.28;5036999;28;20036;-82
2023/05/04 04:20:31;;;;;;;11.30;6.37;;;;;;;7.09;82.82;101933.19;5036663;28;20033;-82
2023/05/04 04:22:57;;;;;;;12.05;6.60;;;;;;;7.07;83.23;101936.06;5037612;28;20105;-83
2023/05/04 04:25:23;;;;;;;14.23;6.90;;;;;;;7.07;83.38;101930.66;5036771;28;20136;-82
2023/05/04 04:27:48;;;;;;;11.45;6.43;;;;;;;7.10;83.26;101927.63;5036612;28;20416;-83
2023/05/04 04:30:14;;;;;;;13.00;5.85;;;;;;;7.13;83.58;101931.81;5054558;28;20086;-82
2023/05/04 04:32:42;;;;;;;13.83;6.30;;;;;;;7.12;83.34;101919.34;5019829;28;20033;-83
2023/05/04 04:35:08;;;;;;;13.18;6.35;;;;;;;7.12;83.35;101920.19;5054524;28;20531;-83
2023/05/04 04:37:33;;;;;;;10.38;6.03;;;;;;;7.14;83.49;101915.47;5036293;28;20064;-83
2023/05/04 04:39:58;;;;;;;14.90;6.03;;;;;;;7.18;83.49;101919.50;5020464;28;20095;-83
2023/05/04 04:42:24;;;;;;;12.50;6.47;;;;;;;7.20;82.99;101920.22;5036429;28;20071;-82
2023/05/04 04:44:51;;;;;;;8.90;6.20;;;;;;;7.26;82.55;101926.78;5003559;28;20037;-83
2023/05/04 04:47:17;;;;;;;10.75;6.40;;;;;;;7.29;83.33;101922.91;5020629;28;20102;-83
2023/05/04 04:49:43;;;;;;;10.23;5.80;;;;;;;7.35;82.24;101928.50;5037061;28;20029;-82
2023/05/04 04:52:08;;;;;;;12.00;6.05;;;;;;;7.36;83.04;101923.94;5036208;28;20123;-83
2023/05/04 04:54:34;;;;;;;12.53;5.83;;;;;;;7.39;82.59;101923.59;5036330;28;20540;-83
2023/05/04 04:56:59;;;;;;;13.27;5.77;;;;;;;7.42;82.23;101920.53;5035778;28;20033;-83
2023/05/04 04:59:25;;;;;;;9.90;5.70;;;;;;;7.47;82.35;101930.84;5036662;28;20282;-83
2023/05/04 05:01:50;;;;;;;10.03;6.03;;;;;;;7.47;81.84;101925.44;5036796;28;20037;-82
2023/05/04 05:04:18;;;;;;;13.37;6.40;;;;;;;7.53;82.75;101931.03;5036191;28;20033;-83
2023/05/04 05:06:44;;;;;;;12.60;5.95;;;;;;;7.58;82.08;101921.59;5053829;28;20028;-83
2023/05/04 05:09:12;;;;;;;12.20;6.20;;;;;;;7.62;82.04;101922.91;5036132;28;20044;-83
2023/05/04 05:11:37;;;;;;;11.10;5.83;;;;;;;7.70;82.22;101931.84;5019537;28;20033;-82
2023/05/04 05:14:03;;;;;;;12.57;6.13;;;;;;;7.77;80.47;101923.09;5019498;28;20395;-83
2023/05/04 05:16:28;;;;;;;10.57;5.60;;;;;;;7.87;80.26;101926.44;5019419;28;20110;-82
2023/05/04 05:18:54;;;;;;;11.47;5.63;;;;;;;7.98;80.69;101926.06;5035238;28;20037;-83
2023/05/04 05:21:19;;;;;;;10.83;5.70;;;;;;;8.05;80.53;101932.47;5019278;28;20029;-81
2023/05/04 05:23:45;;;;;;;14.00;5.90;;;;;;;8.17;79.77;101932.97;5035373;28;20119;-82
2023/05/04 05:26:10;;;;;;;11.47;5.73;;;;;;;8.26;79.52;101931.09;5035729;28;20135;-83
2023/05/04 05:28:36;;;;;;;12.27;5.97;;;;;;;8.34;79.04;101938.31;5018884;28;20071;-83
2023/05/04 05:31:01;;;;;;;11.13;5.77;;;;;;;8.41;78.83;101923.94;5019373;28;20473;-83
2023/05/04 05:33:27;;;;;;;11.80;5.75;;;;;;;8.49;78.42;101924.94;5035480;28;20528;-83
2023/05/04 05:35:52;;;;;;;10.93;5.47;;;;;;;8.56;78.08;101925.94;5053492;28;20067;-83
2023/05/04 05:38:21;;;;;;;10.85;5.40;;;;;;;8.64;76.72;101931.31;5018347;28;20067;-84
2023/05/04 05:40:48;;;;;;;10.97;5.67;;;;;;;8.71;76.65;101929.59;5035403;28;20029;-84
2023/05/04 05:43:14;;;;;;;11.15;5.93;;;;;;;8.81;76.37;101933.94;5019366;28;20037;-84
2023/05/04 05:45:39;;;;;;;11.90;5.83;;;;;;;8.93;76.45;101929.81;5019175;28;20083;-84
2023/05/04 05:48:07;;;;;;;9.02;5.43;;;;;;;9.04;76.12;101926.69;5019839;28;20025;-84
2023/05/04 05:50:33;;;;;;;11.00;5.43;;;;;;;9.12;75.68;101923.09;5019738;28;20119;-84
2023/05/04 05:53:01;;;;;;;12.73;5.20;;;;;;;9.22;75.41;101917.44;5053533;28;20061;-84
2023/05/04 05:55:27;;;;;;;8.10;5.15;;;;;;;9.29;74.50;101927.38;5035396;28;20025;-84
2023/05/04 05:57:52;;;;;;;10.37;5.70;;;;;;;9.43;74.27;101924.91;5035193;28;20477;-84
2023/05/04 06:00:18;;;;;;;7.82;4.93;;;;;;;9.53;73.83;101920.09;5035303;28;20029;-84
2023/05/04 06:02:44;;;;;;;8.45;5.28;;;;;;;9.62;73.35;101920.84;5018950;28;20083;-84
2023/05/04 06:05:10;;;;;;;12.83;5.40;;;;;;;9.72;73.31;101915.19;5052956;28;20037;-83
2023/05/04 06:07:35;;;;;;;10.45;5.43;;;;;;;9.81;72.99;101909.50;5035569;28;20025;-84
2023/05/04 06:10:01;;;;;;;12.17;5.40;;;;;;;9.92;72.32;101915.50;5052825;28;20025;-83
2023/05/04 06:12:27;;;;;;;8.30;5.20;;;;;;;10.00;71.69;101904.56;5018933;28;20036;-84
2023/05/04 06:14:52;;;;;;;9.17;5.50;;;;;;;10.11;71.64;101900.53;5052045;28;20275;-83
2023/05/04 06:17:18;;;;;;;10.20;4.90;;;;;;;10.24;71.29;101908.03;5034872;28;20119;-84
2023/05/04 06:19:44;;;;;;;9.25;5.68;;;;;;;10.34;70.54;101893.19;5053004;28;20090;-84
2023/05/04 06:22:10;;;;;;;12.25;5.93;;;;;;;10.45;69.97;101893.75;5035325;28;20029;-84
2023/05/04 06:24:35;;;;;;;12.30;5.67;;;;;;;10.56;69.71;101890.56;5035017;28;20037;-84
2023/05/04 06:27:01;;;;;;;9.30;5.17;;;;;;;10.69;69.65;101889.88;5053144;28;20025;-84
2023/05/04 06:29:26;;;;;;;12.02;5.93;;;;;;;10.82;69.16;101884.59;5035005;28;20424;-84
2023/05/04 06:31:54;;;;;;;13.03;5.97;;;;;;;10.93;67.89;101877.00;5021129;28;20032;-83
2023/05/04 06:34:20;;;;;;;10.27;5.07;;;;;;;11.05;66.91;101880.88;5038797;28;20029;-83
2023/05/04 06:36:45;;;;;;;7.88;4.75;;;;;;;11.16;67.28;101874.06;5039400;28;20043;-83
2023/05/04 06:39:11;;;;;;;9.17;5.10;;;;;;;11.27;66.46;101872.72;5022906;28;20086;-83
2023/05/04 06:41:39;;;;;;;9.37;5.03;;;;;;;11.36;66.25;101868.81;5039163;28;20450;-82
2023/05/04 06:44:06;;;;;;;9.35;4.97;;;;;;;11.42;65.04;101870.75;5038490;28;20469;-83
2023/05/04 06:46:38;;;;;;;15.55;5.30;;;;;;;11.50;65.54;101865.19;5038771;28;20040;-82
2023/05/04 06:49:03;;;;;;;14.63;5.90;;;;;;;11.58;64.77;101867.75;5038631;28;20111;-82
2023/05/04 06:51:29;;;;;;;8.32;5.00;;;;;;;11.65;64.07;101856.09;5022022;28;20128;-82
2023/05/04 06:53:55;;;;;;;17.38;5.72;;;;;;;11.73;64.18;101864.94;5022009;28;20040;-82
2023/05/04 06:56:22;;;;;;;9.67;5.00;;;;;;;11.82;64.15;101870.22;5005213;28;20389;-82
2023/05/04 06:58:49;;;;;;;11.23;4.78;;;;;;;11.89;63.89;101854.78;5022257;28;20081;-83
2023/05/04 07:01:15;;;;;;;10.38;5.45;;;;;;;12.01;63.47;101853.22;5038481;28;20029;-83
2023/05/04 07:03:43;;;;;;;12.07;4.60;;;;;;;12.04;62.84;101857.44;5038187;28;20033;-83
2023/05/04 07:06:16;;;;;;;11.20;4.93;;;;;;;12.07;62.99;101848.88;5038262;28;20029;-85
2023/05/04 07:08:41;;;;;;;7.05;5.43;;;;;;;12.15;62.48;101851.44;5039042;28;20029;-84
2023/05/04 07:11:10;;;;;;;14.20;5.13;;;;;;;12.27;62.39;101840.81;5038486;28;20075;-84
2023/05/04 07:13:37;;;;;;;7.37;4.50;;;;;;;12.32;61.83;101849.19;5038556;28;20028;-84
2023/05/04 07:16:05;;;;;;;18.95;5.55;;;;;;;12.41;61.78;101842.53;5038289;28;20132;-84
2023/05/04 07:18:31;;;;;;;13.52;5.10;;;;;;;12.60;61.26;101840.91;5037861;28;20029;-83
2023/05/04 07:20:56;;;;;;;11.87;4.97;;;;;;;12.76;60.67;101839.72;5038249;28;20033;-83
2023/05/04 07:23:22;;;;;;;9.57;4.97;;;;;;;12.97;59.77;101830.53;5021096;28;20033;-84
2023/05/04 07:25:47;;;;;;;8.80;5.10;;;;;;;13.16;59.20;101828.03;5039015;28;20485;-84
2023/05/04 07:28:13;;;;;;;12.27;5.37;;;;;;;13.33;58.58;101832.03;5005717;28;20070;-84
2023/05/04 07:30:38;;;;;;;13.33;5.40;;;;;;;13.45;58.16;101834.13;5037636;28;20040;-85
2023/05/04 07:33:04;;;;;;;10.32;5.10;;;;;;;13.54;57.40;101834.75;5021689;28;20064;-84
2023/05/04 07:35:29;;;;;;;11.57;4.90;;;;;;;13.63;57.27;101828.88;5037740;28;20029;-84
2023/05/04 07:37:55;;;;;;;11.47;5.23;;;;;;;13.73;56.94;101828.47;5020780;28;20033;-84
2023/05/04 07:40:20;;;;;;;11.50;4.90;;;;;;;13.82;56.49;101834.53;5038310;28;20453;-83
2023/05/04 07:42:46;;;;;;;7.38;4.65;;;;;;;13.91;55.88;101832.44;5037121;28;20449;-83
2023/05/04 07:45:11;;;;;;;9.97;5.03;;;;;;;14.09;56.24;101839.94;5037328;28;20083;-83
2023/05/04 07:47:40;;;;;;;12.57;5.15;;;;;;;14.24;55.34;101828.75;5037666;28;20029;-84
2023/05/04 07:50:09;;;;;;;7.37;4.97;;;;;;;14.44;54.40;101831.38;5037625;28;20037;-85
2023/05/04 07:52:34;;;;;;;9.98;5.10;;;;;;;14.62;54.54;101827.97;5021798;28;20033;-86
2023/05/04 07:54:59;;;;;;;12.20;5.13;;;;;;;14.77;54.18;101831.22;5054779;28;20476;-85
2023/05/04 07:57:25;;;;;;;11.45;4.50;;;;;;;14.93;53.21;101823.59;5020601;28;20029;-84
2023/05/04 07:59:54;;;;;;;13.60;4.87;;;;;;;15.05;52.99;101825.38;5021287;28;20212;-84
2023/05/04 08:02:26;;;;;;;10.40;4.78;;;;;;;15.18;52.53;101820.88;5036629;28;20032;-84
2023/05/04 08:04:53;;;;;;;9.82;4.93;;;;;;;15.26;51.89;101815.13;5036871;28;20540;-84
2023/05/04 08:07:21;;;;;;;7.50;4.60;;;;;;;15.39;51.33;101814.16;5020128;28;20041;-83
2023/05/04 08:09:46;;;;;;;6.65;4.50;;;;;;;15.49;50.62;101810.94;5020725;28;20040;-83
2023/05/04 08:12:12;;;;;;;8.73;4.73;;;;;;;15.57;50.91;101803.25;5020548;28;20033;-83
2023/05/04 08:14:47;;;;;;;9.02;4.82;;;;;;;15.68;50.78;101803.56;5004341;28;20358;-82
2023/05/04 08:17:19;;;;;;;9.75;4.90;;;;;;;15.69;50.79;101800.59;5054697;28;20035;-83
2023/05/04 08:19:45;;;;;;;8.13;4.60;;;;;;;15.81;49.91;101800.75;5054685;28;20025;-82
2023/05/04 08:22:13;;;;;;;12.65;5.05;;;;;;;15.82;49.93;101796.94;5036469;28;20031;-84
2023/05/04 08:24:41;;;;;;;7.17;4.87;;;;;;;15.76;49.24;101795.06;5036647;28;20079;-84
2023/05/04 08:27:09;;;;;;;10.30;4.97;;;;;;;15.77;50.15;101799.50;5054751;28;20055;-84
2023/05/04 08:29:35;;;;;;;12.20;4.97;;;;;;;15.89;49.95;101796.88;5054725;28;20051;-84
2023/05/04 08:32:01;;;;;;;12.35;5.30;;;;;;;15.89;50.60;101797.69;5020331;28;20033;-83
2023/05/04 08:34:27;;;;;;;13.40;5.60;;;;;;;15.96;50.14;101792.16;5036427;28;20087;-83
2023/05/04 08:36:52;;;;;;;7.63;5.00;;;;;;;16.04;49.14;101785.53;5036237;28;20090;-84
2023/05/04 08:39:18;;;;;;;9.13;4.80;;;;;;;16.09;49.35;101781.06;5036661;28;20025;-84
2023/05/04 08:41:43;;;;;;;6.67;4.87;;;;;;;16.08;49.99;101779.38;5019423;28;20091;-84
2023/05/04 08:44:10;;;;;;;9.02;4.68;;;;;;;16.15;49.74;101776.56;5054218;28;20033;-83
2023/05/04 08:46:38;;;;;;;9.68;5.47;;;;;;;16.19;49.02;101774.19;5036350;28;20029;-84
2023/05/04 08:49:04;;;;;;;6.77;4.90;;;;;;;16.29;49.48;101769.00;5035980;28;20032;-83
2023/05/04 08:51:33;;;;;;;7.28;4.93;;;;;;;16.43;49.70;101754.06;5003732;28;20033;-84
2023/05/04 08:54:00;;;;;;;10.15;5.20;;;;;;;16.55;49.34;101745.03;5019444;28;20033;-83
2023/05/04 08:56:26;;;;;;;8.17;4.97;;;;;;;16.69;48.47;101740.19;5020423;28;20048;-83
2023/05/04 08:58:51;;;;;;;9.43;5.38;;;;;;;16.75;47.77;101739.25;5020280;28;20033;-83
2023/05/04 09:01:18;;;;;;;9.27;4.77;;;;;;;16.86;47.14;101740.34;5019445;28;20525;-85
2023/05/04 09:03:45;;;;;;;7.88;5.47;;;;;;;16.92;47.51;101737.53;5035624;28;20539;-83
2023/05/04 09:06:13;;;;;;;8.38;4.78;;;;;;;16.99;47.81;101735.53;5036190;28;20040;-83
2023/05/04 09:08:42;;;;;;;12.30;4.70;;;;;;;17.08;48.14;101741.50;5053747;28;20118;-83
2023/05/04 09:11:07;;;;;;;9.68;5.55;;;;;;;17.16;47.56;101743.84;5035798;28;20124;-83
2023/05/04 09:13:33;;;;;;;11.20;5.07;;;;;;;17.28;46.75;101737.56;5044406;28;20123;-82
2023/05/04 09:15:58;;;;;;;9.27;5.03;;;;;;;17.32;46.95;101734.09;5035786;28;20286;-84
2023/05/04 09:18:37;;;;;;;8.70;5.40;;;;;;;17.47;47.42;101741.81;5035220;28;20021;-84
2023/05/04 09:21:05;;;;;;;8.82;5.13;;;;;;;17.61;47.20;101736.94;5053294;28;20025;-83
2023/05/04 09:23:32;;;;;;;12.00;4.75;;;;;;;17.69;45.71;101728.31;5035594;28;20029;-83
2023/05/04 09:25:57;;;;;;;8.95;4.80;;;;;;;17.74;45.37;101732.25;5035122;28;20091;-83
2023/05/04 09:28:34;;;;;;;10.23;4.83;;;;;;;17.80;45.51;101734.84;5035494;28;20429;-83
2023/05/04 09:31:01;;;;;;;10.07;4.93;;;;;;;17.87;45.82;101741.03;5035925;28;20029;-83
2023/05/04 09:33:27;;;;;;;10.15;5.10;;;;;;;18.03;46.21;101733.16;5035600;28;20021;-83
2023/05/04 09:35:52;;;;;;;7.07;4.72;;;;;;;18.12;44.74;101722.63;5035692;28;20115;-83
2023/05/04 09:38:30;;;;;;;9.30;4.53;;;;;;;18.26;44.90;101723.97;5018965;28;20029;-83
2023/05/04 09:40:55;;;;;;;10.45;4.75;;;;;;;18.36;44.46;101723.34;5053382;28;20021;-82
2023/05/04 09:43:22;;;;;;;10.27;5.20;;;;;;;18.46;45.00;101726.28;5054185;28;20079;-82
2023/05/04 09:45:48;;;;;;;14.25;5.18;;;;;;;18.61;45.08;101716.66;5019880;28;20033;-83
2023/05/04 09:48:24;;;;;;;8.73;4.83;;;;;;;18.72;45.01;101716.56;5019142;28;20059;-82
2023/05/04 09:50:57;;;;;;;10.45;4.60;;;;;;;19.01;44.18;101712.94;5035692;28;20029;-83
2023/05/04 09:53:24;;;;;;;7.88;4.47;;;;;;;19.07;43.03;101712.78;5053118;28;20040;-83
2023/05/04 09:56:16;;;;;;;6.38;4.30;;;;;;;19.30;43.52;101710.06;5019291;28;20040;-83
2023/05/04 09:58:46;;;;;;;13.38;4.82;;;;;;;19.49;42.41;101702.31;5036003;28;20483;-83
2023/05/04 10:01:12;;;;;;;11.20;5.03;;;;;;;19.57;41.85;101705.47;5052983;28;20511;-83
2023/05/04 10:03:37;;;;;;;8.88;5.10;;;;;;;19.63;41.35;101684.34;5035194;28;20119;-83
2023/05/04 10:06:07;;;;;;;8.87;4.87;;;;;;;19.63;41.15;101690.72;5036541;28;20027;-83
2023/05/04 10:08:33;;;;;;;6.85;4.90;;;;;;;19.72;41.56;101685.56;5057163;28;20040;-82
2023/05/04 10:10:58;;;;;;;6.63;5.20;;;;;;;19.91;40.94;101674.25;5022714;28;20025;-83
2023/05/04 10:13:25;;;;;;;12.53;5.57;;;;;;;20.11;41.08;101670.91;5039176;28;20029;-83
2023/05/04 10:16:04;;;;;;;9.25;5.28;;;;;;;20.20;40.60;101654.75;5057083;28;20037;-86
2023/05/04 10:18:30;;;;;;;8.90;4.82;;;;;;;20.36;40.28;101652.94;5038947;28;20067;-82
2023/05/04 10:21:32;;;;;;;9.53;5.40;;;;;;;20.56;40.55;101649.53;5038946;28;20068;-82
2023/05/04 10:24:29;;;;;;;10.10;4.70;;;;;;;20.83;40.50;101652.22;5055552;28;20025;-85
2023/05/04 10:27:33;;;;;;;10.90;5.38;;;;;;;21.10;40.00;101635.59;5038591;28;20055;-85
2023/05/04 10:30:03;;;;;;;7.63;5.45;;;;;;;21.27;38.42;101627.13;5035689;28;20428;-85
2023/05/04 10:32:29;;;;;;;10.90;5.80;;;;;;;21.38;38.49;101622.50;5038846;28;20119;-84
2023/05/04 10:35:08;;;;;;;8.70;5.10;;;;;;;21.45;38.85;101625.84;5038911;28;20132;-85
2023/05/04 10:37:52;;;;;;;9.80;4.90;;;;;;;21.48;37.40;101622.53;5038573;28;20032;-84
2023/05/04 10:40:39;;;;;;;7.88;5.10;;;;;;;21.54;37.52;101621.47;5056616;28;20143;-85
2023/05/04 10:43:06;;;;;;;7.63;4.70;;;;;;;21.76;37.30;101608.56;5038191;28;20041;-85
2023/05/04 10:45:36;;;;;;;10.55;5.03;;;;;;;21.96;37.19;101603.06;5056476;28;20035;-85
2023/05/04 10:48:11;;;;;;;12.75;5.00;;;;;;;22.17;36.58;101592.03;5055748;28;20137;-85
2023/05/04 10:50:44;;;;;;;10.35;5.20;;;;;;;22.44;36.48;101583.50;5039235;28;20086;-85
2023/05/04 10:53:11;;;;;;;6.03;4.95;;;;;;;22.64;35.53;101576.28;5056517;28;20035;-85
2023/05/04 10:55:45;;;;;;;7.13;4.67;;;;;;;22.83;36.22;101571.81;5038337;28;20025;-85
2023/05/04 10:58:15;;;;;;;9.35;4.60;;;;;;;23.04;35.42;101569.81;5038322;28;20036;-86
2023/05/04 11:00:42;;;;;;;9.65;4.85;;;;;;;23.33;35.00;101560.88;5038468;28;20102;-86
2023/05/04 11:03:07;;;;;;;7.40;4.38;;;;;;;23.64;33.46;101552.38;5038320;28;20386;-86
2023/05/04 11:05:45;;;;;;;8.80;4.43;;;;;;;23.96;34.25;101560.22;5038144;28;20025;-87
2023/05/04 11:08:21;;;;;;;5.60;4.35;;;;;;;24.30;33.14;101556.63;5038160;28;20032;-86
2023/05/04 11:10:47;;;;;;;7.25;5.00;;;;;;;24.57;32.95;101546.09;5038136;28;20040;-84
2023/05/04 11:13:14;;;;;;;6.95;4.90;;;;;;;25.38;31.70;101549.06;5056231;28;20103;-84
2023/05/04 11:15:47;;;;;;;5.43;4.20;;;;;;;26.90;29.25;101534.00;5038196;28;20037;-83
2023/05/04 11:18:29;;;;;;;10.48;4.90;;;;;;;30.07;26.90;101534.22;5037039;28;20040;-84
2023/05/04 11:20:55;;;;;;;6.65;4.72;;;;;;;32.75;22.54;101529.34;5056436;28;20504;-84
2023/05/04 11:23:21;;;;;;;8.13;4.40;;;;;;;34.90;20.38;101531.06;5021641;28;20111;-84
2023/05/04 11:25:47;;;;;;;7.90;4.40;;;;;;;35.91;19.14;101524.78;5037701;28;20077;-88